Meteo Giornale » Osservazioni meteo Italia » Messina

ore: 06:55 - Osservazioni Meteo Messina
Lat. 38° 12' N Lon. 15° 33' E Alt. 59 metri s.l.m.

nuvoloso Europe/Rome

15 °C

Nuvoloso

Temp. 24 Ore

14 °C

18 °C

Nord

9.3 Km/h

Dew point 12 °C

Umidità 82 %

Visibilità  9 Km

Il sole sorge alle ore 05:49

Il sole tramonta alle ore 18:16

Data e Ora Cielo e Fenomeni T °C DP °C Um. % Pres. hPa Vis. km Vento km/h
Oggi h: 06:55 nuvoloso Nuvoloso 15 12 82 1019 9 N 9.3
Oggi h: 05:55 nuvoloso Nuvoloso 15 12 82 1019 10 N 5.5
Oggi h: 04:55 sereno Sereno 15 11 76 1019 10 N/NO 7.4
Oggi h: 03:55 sereno Sereno 15 12 82 1019 10 N/NO 7.4
Oggi h: 03:55 sereno Sereno 15 11 76 1019 10 N 7.4
Oggi h: 01:55 poco_nuvoloso Poco Nuvoloso 15 11 76 1020 10 N/NO 7.4
Oggi h: 00:55 poco_nuvoloso Poco Nuvoloso 15 12 82 1020 10 N/NO 9.3
Ieri h: 23:55 poco_nuvoloso Poco Nuvoloso 15 13 87 1020 10 N/NO 11.1
Ieri h: 22:55 sereno Sereno 15 11 76 1020 10 O/NO 9.3
Ieri h: 21:55 sereno Sereno 14 13 93 1020 10 N 3.7
Ieri h: 20:55 sereno Sereno 14 12 87 1020 10 N 3.7
Ieri h: 19:55 sereno Sereno 15 13 87 1020 10 S/SO 7.4
Ieri h: 18:55 sereno Sereno 15 13 87 1020 10 N 5.5
Ieri h: 17:55 sereno Sereno 15 13 87 1020 10 S/SO 7.4
Ieri h: 16:55 sereno Sereno 16 13 82 1019 10 S/SO 13
Ieri h: 15:55 sereno Sereno 17 8 55 1019 10 O/SO 11.1
Ieri h: 14:55 sereno Sereno 18 5 42 1020 10 SO 13
Ieri h: 13:55 sereno Sereno 18 3 36 1020 10 SO 16.7
Ieri h: 12:55 sereno Sereno 18 3 36 1021 10 O/SO 14.8
Ieri h: 11:55 poco_nuvoloso Poco Nuvoloso 17 6 48 1021 9 SO 13
Ieri h: 10:55 poco_nuvoloso Poco Nuvoloso 17 7 51 1021 9 S/SO 14.8
Ieri h: 09:55 poco_nuvoloso Poco Nuvoloso 16 8 58 1021 8 S/SO 11.1
Ieri h: 08:55 poco_nuvoloso Poco Nuvoloso 15 11 76 1021 8 S/SO 13